Historique des mesures à Cassis (13260), France
Quotidien Résumé Juin 4, 2017 Unités:  US    Métrique   Métrique/US
« Précédent (Jour)
Suivant (Jour) »
Quotidien Hebdomadaire Mensuel Annuel Période au choix
  Maximum: Minimum: Moyenne:
Température: 32 °F 66.4 °F 70.3 °F
Point de rosée: 32 °F 54.9 °F 56.7 °F
Humidité: Humidity % 47 % 59 %
Vitesse du vent: WindSpeedKMH mph 0.0 mph 9.7 mph
Rafales: WindSpeedGustKMH mph - -
Vent:- - SW
Pression: 0 in 29.8 in -
Précipitations: 0 in    
Historical Graphs
 
 
Mesures pour : Juin 4, 2017
Heure Temperature Point de rosée Pression Vent Vitesse du vent Rafales Humidité Pluie (par heure) Conditions
32 °F 32 °F 0 in Calm     Humidity % 0 in SoftwareType W/m2
00:10 69.1 °F 60.1 °F 29.9 in WNW 21.2 mph 21.2 mph 73 % 0 in open2300-1.11 W/m2
01:10 67.8 °F 58.5 °F 29.9 in North 2.1 mph 6.4 mph 72 % 0 in open2300-1.11 W/m2
02:10 67.3 °F 58.6 °F 29.9 in Calm     74 % 0 in open2300-1.11 W/m2
03:10 67.1 °F 58.8 °F 29.9 in North 5.0 mph 7.9 mph 75 % 0 in open2300-1.11 W/m2
04:10 66.6 °F 58.8 °F 29.9 in NNE 7.9 mph 7.9 mph 76 % 0 in open2300-1.11 W/m2
05:10 66.4 °F 58.3 °F 29.9 in NE 3.2 mph 5.5 mph 75 % 0 in open2300-1.11 W/m2
06:10 66.4 °F 57.4 °F 29.9 in NW 6.1 mph 6.1 mph 73 % 0 in open2300-1.11 W/m2
07:10 66.6 °F 56.8 °F 29.9 in North 2.9 mph 16.3 mph 71 % 0 in open2300-1.11 W/m2
08:10 67.8 °F 57.7 °F 29.9 in WNW 13.4 mph 34.6 mph 70 % 0 in open2300-1.11 W/m2
09:10 67.8 °F 57.4 °F 29.8 in NNW 14.0 mph 25.9 mph 69 % 0 in open2300-1.11 W/m2
10:10 71.8 °F 57.9 °F 29.8 in WNW 19.1 mph 24.5 mph 62 % 0 in open2300-1.11 W/m2
11:10 75.4 °F 58.1 °F 29.8 in West 13.7 mph 29.9 mph 55 % 0 in open2300-1.11 W/m2
12:10 78.1 °F 58.5 °F 29.8 in WNW 18.7 mph 29.9 mph 51 % 0 in open2300-1.11 W/m2
13:10 77.7 °F 57.7 °F 29.8 in NW 10.1 mph 20.1 mph 50 % 0 in open2300-1.11 W/m2
15:10 79.5 °F 59.4 °F 29.8 in NNW 18.3 mph 18.3 mph 50 % 0 in open2300-1.11 W/m2
16:10 79.3 °F 59.2 °F 29.8 in NNE 6.1 mph 31.7 mph 50 % 0 in open2300-1.11 W/m2
17:11 78.1 °F 57.4 °F 29.8 in NW 21.6 mph 21.6 mph 49 % 0 in open2300-1.11 W/m2
18:10 79 °F 57 °F 29.8 in WNW 11.9 mph 33.1 mph 47 % 0 in open2300-1.11 W/m2
19:11 75.7 °F 58.8 °F 29.8 in NW 20.6 mph 20.6 mph 56 % 0 in open2300-1.11 W/m2
20:10 74.5 °F 58.3 °F 29.8 in WNW 5.8 mph 10.1 mph 57 % 0 in open2300-1.11 W/m2
21:10 73.4 °F 55 °F 29.8 in North 1.4 mph 9.3 mph 53 % 0 in open2300-1.11 W/m2
22:10 71.8 °F 55.2 °F 29.8 in NNW 1.4 mph 1.4 mph 56 % 0 in open2300-1.11 W/m2
23:10 70.3 °F 54.9 °F 29.8 in NW 7.9 mph 10.1 mph 58 % 0 in open2300-1.11 W/m2
Observations météo à CASSIS
WU-History script by Weather Underground - 1 mb